Terminal Aerodrome Forecast
Issued by NWS Sterling, VA

Current Version | Previous Version | Text Only | Print | Product List | Glossary Off
Versions: 1 2 3 4 5 6 7 8 9 10 11 12 13 14 15 16 17 18 19 20

000
FTUS41 KLWX 241120
TAFMRB
TAF
KMRB 241120Z 2412/2512 29009KT P6SM SCT025 BKN080
     FM241300 29010G17KT P6SM FEW035 SCT150
     FM250100 29006KT P6SM FEW070 SCT250=

USA.gov is the U.S. government's official web portal to all federal, state and local government web resources and services.